createdAt,value
2023-07-03T00:02:26.231Z,2.22
2023-07-03T00:04:53.130Z,2.33
2023-07-03T00:07:20.543Z,2.40
2023-07-03T00:09:47.482Z,2.40
2023-07-03T00:12:14.157Z,2.30
2023-07-03T00:14:40.860Z,2.22
2023-07-03T00:17:10.784Z,2.38
2023-07-03T00:19:37.613Z,2.38
2023-07-03T00:22:04.556Z,2.30
2023-07-03T00:24:32.652Z,2.00
2023-07-03T00:26:59.820Z,2.10
2023-07-03T00:29:30.020Z,2.63
2023-07-03T00:31:56.746Z,2.40
2023-07-03T00:34:23.450Z,2.30
2023-07-03T00:36:50.107Z,2.60
2023-07-03T00:39:16.860Z,2.17
2023-07-03T00:41:43.816Z,2.47
2023-07-03T00:44:13.490Z,2.38
2023-07-03T00:46:41.999Z,2.40
2023-07-03T00:49:10.249Z,2.05
2023-07-03T00:51:39.995Z,2.38
2023-07-03T00:54:06.705Z,2.42
2023-07-03T00:56:33.420Z,2.00
2023-07-03T00:59:00.239Z,2.30
2023-07-03T01:01:38.208Z,2.45
2023-07-03T01:04:12.186Z,2.53
2023-07-03T01:06:47.543Z,2.75
2023-07-03T01:09:17.526Z,2.13
2023-07-03T01:11:45.694Z,2.60
2023-07-03T01:14:16.092Z,2.42
2023-07-03T01:16:43.579Z,2.55
2023-07-03T01:19:15.466Z,2.13
2023-07-03T01:21:52.677Z,2.55
2023-07-03T01:24:38.571Z,2.38
2023-07-03T01:27:07.095Z,2.35
2023-07-03T01:29:35.480Z,2.60
2023-07-03T01:32:05.379Z,2.55
2023-07-03T01:34:33.838Z,2.80
2023-07-03T01:37:02.273Z,2.78
2023-07-03T01:39:29.223Z,2.55
2023-07-03T01:41:57.602Z,3.00
2023-07-03T01:44:24.624Z,2.40
2023-07-03T01:46:51.953Z,2.83
2023-07-03T01:49:18.655Z,2.67
2023-07-03T01:52:04.451Z,2.90
2023-07-03T01:54:41.348Z,2.58
2023-07-03T01:57:12.086Z,2.53
2023-07-03T01:59:41.572Z,3.00
2023-07-03T02:02:16.730Z,2.25
2023-07-03T02:04:51.546Z,2.45
2023-07-03T02:07:19.236Z,2.55
2023-07-03T02:09:46.320Z,2.90
2023-07-03T02:12:12.973Z,2.33
2023-07-03T02:14:39.708Z,2.50
2023-07-03T02:17:09.582Z,2.80
2023-07-03T02:19:37.003Z,2.83
2023-07-03T02:22:04.233Z,2.72
2023-07-03T02:24:31.227Z,2.70
2023-07-03T02:26:57.888Z,2.58
2023-07-03T02:29:24.495Z,2.83
2023-07-03T02:31:51.269Z,2.50
2023-07-03T02:34:18.027Z,3.00
2023-07-03T02:36:47.312Z,2.95
2023-07-03T02:39:13.955Z,3.03
2023-07-03T02:41:40.783Z,2.60
2023-07-03T02:44:07.386Z,3.22
2023-07-03T02:46:34.099Z,2.70
2023-07-03T02:49:00.775Z,3.00
2023-07-03T02:51:27.421Z,2.90
2023-07-03T02:53:54.053Z,3.00
2023-07-03T02:56:20.782Z,2.88
2023-07-03T02:58:47.538Z,2.80
2023-07-03T03:01:14.378Z,2.92
2023-07-03T03:03:41.097Z,2.60
2023-07-03T03:06:07.825Z,2.45
2023-07-03T03:08:34.459Z,2.75
2023-07-03T03:11:01.517Z,2.40
2023-07-03T03:13:28.182Z,2.90
2023-07-03T03:15:55.807Z,2.05
2023-07-03T03:18:22.605Z,2.70
2023-07-03T03:20:49.246Z,2.70
2023-07-03T03:23:15.854Z,2.30
2023-07-03T03:25:43.667Z,2.40
2023-07-03T03:28:10.827Z,2.75
2023-07-03T03:30:37.548Z,2.80
2023-07-03T03:33:04.354Z,2.75
2023-07-03T03:35:31.030Z,2.30
2023-07-03T03:37:57.684Z,3.08
2023-07-03T03:40:24.322Z,2.67
2023-07-03T03:42:50.935Z,2.45
2023-07-03T03:45:18.545Z,3.10
2023-07-03T03:47:47.581Z,2.45
2023-07-03T03:50:14.460Z,2.50
2023-07-03T03:52:41.062Z,3.10
2023-07-03T03:55:08.056Z,2.80
2023-07-03T03:57:35.124Z,2.90
2023-07-03T04:00:01.774Z,2.40
2023-07-03T04:02:28.581Z,2.38
2023-07-03T04:04:55.308Z,2.70
2023-07-03T04:07:21.990Z,2.17
2023-07-03T04:09:48.574Z,2.63
2023-07-03T04:12:15.163Z,2.47
2023-07-03T04:14:43.903Z,2.50
2023-07-03T04:17:10.608Z,2.15
2023-07-03T04:19:37.355Z,2.88
2023-07-03T04:22:04.196Z,2.72
2023-07-03T04:24:30.851Z,2.33
2023-07-03T04:27:00.058Z,2.90
2023-07-03T04:29:26.706Z,2.35
2023-07-03T04:31:53.479Z,2.53
2023-07-03T04:34:20.124Z,2.15
2023-07-03T04:36:48.928Z,2.35
2023-07-03T04:39:15.769Z,2.40
2023-07-03T04:41:42.584Z,2.40
2023-07-03T04:44:13.328Z,2.28
2023-07-03T04:46:41.087Z,2.40
2023-07-03T04:49:08.692Z,2.53
2023-07-03T04:51:35.361Z,2.53
2023-07-03T04:54:02.305Z,2.65
2023-07-03T04:56:31.473Z,2.30
2023-07-03T04:58:58.269Z,2.45
2023-07-03T05:01:26.120Z,2.90
2023-07-03T05:03:53.036Z,2.33
2023-07-03T05:06:19.805Z,2.70
2023-07-03T05:08:48.022Z,2.50
2023-07-03T05:11:14.775Z,2.33
2023-07-03T05:13:41.507Z,2.03
2023-07-03T05:16:08.152Z,2.35
2023-07-03T05:18:34.841Z,2.08
2023-07-03T05:21:01.790Z,2.63
2023-07-03T05:23:28.451Z,2.38
2023-07-03T05:25:55.018Z,2.83
2023-07-03T05:28:21.668Z,2.45
2023-07-03T05:30:57.463Z,2.42
2023-07-03T05:33:24.856Z,2.40
2023-07-03T05:35:54.539Z,2.35
2023-07-03T05:38:22.112Z,2.50
2023-07-03T05:40:51.468Z,2.30
2023-07-03T05:43:19.458Z,2.40
2023-07-03T05:45:49.108Z,2.30
2023-07-03T05:48:16.856Z,1.40
2023-07-03T05:50:44.627Z,2.50
2023-07-03T05:53:11.244Z,2.30
2023-07-03T05:55:37.947Z,2.90
2023-07-03T05:58:05.038Z,2.65
2023-07-03T06:00:34.430Z,2.35
2023-07-03T06:03:01.910Z,2.40
2023-07-03T06:05:29.056Z,2.83
2023-07-03T06:07:55.683Z,2.78
2023-07-03T06:10:24.687Z,3.10
2023-07-03T06:12:51.302Z,2.10
2023-07-03T06:15:18.002Z,2.97
2023-07-03T06:17:45.308Z,2.90
2023-07-03T06:20:12.594Z,3.10
2023-07-03T06:22:42.088Z,2.78
2023-07-03T06:25:09.730Z,2.95
2023-07-03T06:27:36.473Z,2.70
2023-07-03T06:30:04.405Z,2.50
2023-07-03T06:32:31.186Z,2.35
2023-07-03T06:34:57.962Z,2.80
2023-07-03T06:37:24.620Z,2.58
2023-07-03T06:39:51.255Z,3.03
2023-07-03T06:42:18.005Z,2.17
2023-07-03T06:44:44.874Z,2.30
2023-07-03T06:47:11.575Z,2.78
2023-07-03T06:49:38.910Z,2.35
2023-07-03T06:52:06.189Z,2.47
2023-07-03T06:54:33.072Z,2.15
2023-07-03T06:57:01.051Z,2.85
2023-07-03T06:59:27.691Z,2.05
2023-07-03T07:01:54.378Z,2.80
2023-07-03T07:04:21.261Z,2.17
2023-07-03T07:06:49.529Z,2.53
2023-07-03T07:09:17.189Z,2.50
2023-07-03T07:11:43.868Z,3.00
2023-07-03T07:14:10.597Z,2.28
2023-07-03T07:16:38.238Z,2.67
2023-07-03T07:19:08.800Z,2.70
2023-07-03T07:21:39.276Z,2.70
2023-07-03T07:24:32.104Z,2.53
2023-07-03T07:27:00.771Z,1.88
2023-07-03T07:29:27.733Z,2.35
2023-07-03T07:31:56.543Z,2.17
2023-07-03T07:34:23.854Z,2.58
2023-07-03T07:36:51.045Z,2.45
2023-07-03T07:39:21.161Z,2.15
2023-07-03T07:41:48.117Z,2.70
2023-07-03T07:44:14.760Z,2.72
2023-07-03T07:46:41.478Z,2.30
2023-07-03T07:49:09.981Z,2.60
2023-07-03T07:51:37.235Z,2.78
2023-07-03T07:54:04.363Z,2.25
2023-07-03T07:56:34.026Z,2.45
2023-07-03T07:59:01.168Z,2.58
2023-07-03T08:01:28.338Z,2.30
2023-07-03T08:03:55.046Z,2.42
2023-07-03T08:06:21.734Z,2.20
2023-07-03T08:08:49.848Z,2.53
2023-07-03T08:11:16.544Z,2.35
2023-07-03T08:13:43.267Z,2.67
2023-07-03T08:16:11.957Z,2.10
2023-07-03T08:18:38.791Z,1.90
2023-07-03T08:21:05.706Z,2.17
2023-07-03T08:23:32.766Z,2.20
2023-07-03T08:26:01.286Z,2.10
2023-07-03T08:28:28.204Z,2.42
2023-07-03T08:30:54.959Z,2.30
2023-07-03T08:33:21.921Z,2.80
2023-07-03T08:38:18.202Z,2.97
2023-07-03T08:40:44.970Z,2.60
2023-07-03T08:43:17.271Z,2.45
2023-07-03T08:45:46.257Z,2.60
2023-07-03T08:48:23.139Z,2.75
2023-07-03T08:50:54.161Z,2.95
2023-07-03T08:53:27.225Z,2.70
2023-07-03T08:56:02.199Z,3.15
2023-07-03T08:58:29.006Z,2.65
2023-07-03T09:01:06.345Z,2.47
2023-07-03T09:03:50.617Z,2.42
2023-07-03T09:06:29.991Z,2.20
2023-07-03T09:08:59.339Z,2.63
2023-07-03T09:11:28.894Z,2.17
2023-07-03T09:13:59.865Z,2.47
2023-07-03T09:16:26.613Z,2.47
2023-07-03T09:19:18.048Z,2.20
2023-07-03T09:21:45.456Z,2.33
2023-07-03T09:24:28.545Z,1.90
2023-07-03T09:27:10.872Z,2.30
2023-07-03T09:29:39.120Z,2.20
2023-07-03T09:32:06.260Z,2.53
2023-07-03T09:34:59.531Z,2.40
2023-07-03T09:37:26.271Z,2.00
2023-07-03T09:39:53.282Z,2.30
2023-07-03T09:42:21.797Z,2.35
2023-07-03T09:44:50.271Z,1.90
2023-07-03T09:47:23.397Z,1.58
2023-07-03T09:49:50.372Z,1.70
2023-07-03T09:52:17.726Z,1.85
2023-07-03T09:54:47.299Z,2.00
2023-07-03T09:57:40.235Z,2.40
2023-07-03T10:00:11.874Z,1.90
2023-07-03T10:07:44.907Z,1.83
2023-07-03T10:12:57.253Z,2.20
2023-07-03T10:15:31.293Z,1.83
2023-07-03T10:18:20.585Z,1.95
2023-07-03T10:20:49.383Z,2.38
2023-07-03T10:23:31.755Z,2.00
2023-07-03T10:26:05.807Z,1.52
2023-07-03T10:28:42.594Z,1.83
2023-07-03T10:31:21.709Z,1.90
2023-07-03T10:33:50.962Z,1.52
2023-07-03T10:36:22.610Z,1.63
2023-07-03T10:39:17.115Z,1.77
2023-07-03T10:41:49.065Z,1.65
2023-07-03T10:44:31.433Z,1.55
2023-07-03T10:47:00.070Z,1.80
2023-07-03T10:49:31.410Z,2.08
2023-07-03T10:52:16.905Z,1.38
2023-07-03T10:54:56.364Z,1.70
2023-07-03T10:57:34.587Z,1.75
2023-07-03T11:00:08.282Z,1.90
2023-07-03T11:03:00.080Z,1.40
2023-07-03T11:05:36.318Z,1.67
2023-07-03T11:08:24.631Z,1.40
2023-07-03T11:11:07.765Z,1.90
2023-07-03T11:13:58.205Z,1.80
2023-07-03T11:16:35.310Z,1.63
2023-07-03T11:24:59.393Z,1.70
2023-07-03T11:30:08.635Z,1.75
2023-07-03T11:32:35.974Z,1.92
2023-07-03T11:40:38.881Z,1.88
2023-07-03T11:43:29.946Z,1.55
2023-07-03T11:45:59.596Z,1.80
2023-07-03T11:48:29.450Z,1.70
2023-07-03T11:51:00.108Z,2.20
2023-07-03T11:53:34.617Z,1.92
2023-07-03T11:56:02.839Z,1.60
2023-07-03T11:58:31.550Z,2.03
2023-07-03T12:01:27.542Z,1.95
2023-07-03T12:03:55.465Z,1.60
2023-07-03T12:06:48.703Z,1.60
2023-07-03T12:09:31.945Z,1.65
2023-07-03T12:12:01.686Z,1.60
2023-07-03T12:14:45.226Z,1.60
2023-07-03T12:17:23.480Z,1.45
2023-07-03T12:19:53.960Z,1.80
2023-07-03T12:22:23.517Z,1.60
2023-07-03T12:25:10.634Z,1.60
2023-07-03T12:27:39.630Z,1.33
2023-07-03T12:30:21.833Z,1.50
2023-07-03T12:32:53.819Z,1.42
2023-07-03T12:35:24.652Z,1.80
2023-07-03T12:37:57.835Z,1.50
2023-07-03T12:40:25.630Z,1.70
2023-07-03T12:42:59.095Z,1.55
2023-07-03T12:45:31.060Z,1.55
2023-07-03T12:48:11.720Z,1.70
2023-07-03T12:50:55.018Z,1.73
2023-07-03T12:53:22.923Z,1.40
2023-07-03T12:55:57.515Z,1.63
2023-07-03T12:58:25.543Z,1.50
2023-07-03T13:01:07.410Z,1.70
2023-07-03T13:03:39.710Z,1.40
2023-07-03T13:06:26.511Z,1.90
2023-07-03T13:08:53.786Z,1.50
2023-07-03T13:11:35.343Z,2.15
2023-07-03T13:14:18.469Z,1.50
2023-07-03T13:16:48.895Z,1.42
2023-07-03T13:19:35.336Z,1.52
2023-07-03T13:22:05.924Z,1.50
2023-07-03T13:24:32.755Z,1.40
2023-07-03T13:26:59.912Z,1.67
2023-07-03T13:29:33.532Z,1.45
2023-07-03T13:32:19.217Z,1.58
2023-07-03T13:34:59.040Z,1.60
2023-07-03T13:37:28.754Z,1.30
2023-07-03T13:40:01.308Z,1.60
2023-07-03T13:42:30.198Z,1.63
2023-07-03T13:44:56.778Z,2.15
2023-07-03T13:47:25.091Z,1.30
2023-07-03T13:49:54.304Z,1.60
2023-07-03T13:52:20.978Z,1.30
2023-07-03T13:54:47.599Z,1.50
2023-07-03T13:57:14.211Z,1.60
2023-07-03T13:59:40.849Z,1.60
2023-07-03T14:02:08.198Z,1.60
2023-07-03T14:04:34.906Z,1.50
2023-07-03T14:07:01.702Z,1.63
2023-07-03T14:09:28.296Z,1.70
2023-07-03T14:11:54.877Z,1.75
2023-07-03T14:14:21.505Z,1.48
2023-07-03T14:16:49.772Z,1.70
2023-07-03T14:19:16.474Z,1.60
2023-07-03T14:21:43.250Z,1.75
2023-07-03T14:24:10.476Z,1.30
2023-07-03T14:26:37.040Z,1.27
2023-07-03T14:29:03.680Z,1.50
2023-07-03T14:31:30.571Z,1.85
2023-07-03T14:33:57.189Z,1.20
2023-07-03T14:36:23.920Z,1.45
2023-07-03T14:38:50.795Z,1.45
2023-07-03T14:41:17.374Z,1.70
2023-07-03T14:43:43.976Z,1.30
2023-07-03T14:46:10.589Z,1.23
2023-07-03T14:48:37.253Z,1.60
2023-07-03T14:51:04.138Z,1.30
2023-07-03T14:53:30.999Z,1.65
2023-07-03T14:55:59.847Z,1.88
2023-07-03T14:58:27.824Z,1.70
2023-07-03T15:00:54.841Z,1.98
2023-07-03T15:03:21.814Z,2.10
2023-07-03T15:05:49.006Z,1.65
2023-07-03T15:08:16.335Z,1.88
2023-07-03T15:10:42.935Z,1.90
2023-07-03T15:13:09.681Z,1.77
2023-07-03T15:15:36.400Z,1.83
2023-07-03T15:18:04.302Z,1.98
2023-07-03T15:20:31.385Z,1.50
2023-07-03T15:22:58.073Z,1.98
2023-07-03T15:25:24.662Z,1.60
2023-07-03T15:27:51.322Z,1.73
2023-07-03T15:30:18.175Z,1.70
2023-07-03T15:32:50.403Z,1.25
2023-07-03T15:35:17.154Z,1.63
2023-07-03T15:37:43.955Z,1.58
2023-07-03T15:40:11.201Z,1.80
2023-07-03T15:42:39.173Z,1.00
2023-07-03T15:45:06.534Z,1.52
2023-07-03T15:47:37.892Z,1.60
2023-07-03T15:50:06.689Z,1.60
2023-07-03T15:52:33.679Z,1.50
2023-07-03T15:55:00.268Z,0.93
2023-07-03T15:57:28.364Z,1.25
2023-07-03T15:59:55.088Z,1.60
2023-07-03T16:02:21.894Z,1.55
2023-07-03T16:04:48.613Z,1.80
2023-07-03T16:07:16.279Z,1.20
2023-07-03T16:09:42.953Z,1.63
2023-07-03T16:12:09.591Z,1.73
2023-07-03T16:14:36.272Z,1.65
2023-07-03T16:17:02.996Z,1.50
2023-07-03T16:19:30.095Z,1.67
2023-07-03T16:21:56.894Z,1.60
2023-07-03T16:24:23.882Z,1.75
2023-07-03T16:26:50.540Z,1.40
2023-07-03T16:29:17.823Z,1.70
2023-07-03T16:31:46.462Z,2.25
2023-07-03T16:34:13.705Z,1.73
2023-07-03T16:36:40.380Z,1.30
2023-07-03T16:39:07.092Z,1.70
2023-07-03T16:41:37.694Z,1.30
2023-07-03T16:44:04.555Z,1.70
2023-07-03T16:46:31.662Z,1.75
2023-07-03T16:48:59.377Z,1.05
2023-07-03T16:51:27.757Z,1.52
2023-07-03T16:53:55.136Z,1.60
2023-07-03T16:56:27.994Z,1.35
2023-07-03T16:58:58.356Z,1.58
2023-07-03T17:01:26.963Z,1.50
2023-07-03T17:03:56.523Z,1.67
2023-07-03T17:06:32.757Z,1.42
2023-07-03T17:09:01.044Z,1.42
2023-07-03T17:11:28.134Z,1.80
2023-07-03T17:13:55.425Z,2.10
2023-07-03T17:16:22.432Z,1.23
2023-07-03T17:18:49.210Z,1.73
2023-07-03T17:21:16.111Z,2.13
2023-07-03T17:23:43.385Z,1.75
2023-07-03T17:26:11.970Z,1.55
2023-07-03T17:28:39.091Z,1.45
2023-07-03T17:31:06.182Z,1.70
2023-07-03T17:33:33.435Z,1.67
2023-07-03T17:36:02.386Z,1.83
2023-07-03T17:38:29.632Z,1.83
2023-07-03T17:40:56.266Z,1.85
2023-07-03T17:43:23.799Z,1.85
2023-07-03T17:45:53.411Z,1.95
2023-07-03T17:48:21.474Z,2.10
2023-07-03T17:50:48.172Z,1.95
2023-07-03T17:53:16.632Z,1.90
2023-07-03T17:55:43.899Z,1.67
2023-07-03T17:58:10.725Z,2.13
2023-07-03T18:00:37.352Z,2.03
2023-07-03T18:03:04.658Z,2.20
2023-07-03T18:05:35.491Z,1.83
2023-07-03T18:08:03.755Z,1.90
2023-07-03T18:10:31.840Z,2.10
2023-07-03T18:12:59.626Z,1.83
2023-07-03T18:15:39.279Z,1.83
2023-07-03T18:18:10.884Z,1.90
2023-07-03T18:20:37.608Z,1.70
2023-07-03T18:23:04.349Z,1.67
2023-07-03T18:25:31.076Z,1.73
2023-07-03T18:27:58.027Z,2.25
2023-07-03T18:30:24.738Z,1.95
2023-07-03T18:32:51.403Z,1.55
2023-07-03T18:35:18.160Z,1.90
2023-07-03T18:37:45.079Z,1.60
2023-07-03T18:40:11.940Z,1.92
2023-07-03T18:42:38.568Z,1.70
2023-07-03T18:45:05.859Z,1.60
2023-07-03T18:47:32.793Z,1.88
2023-07-03T18:50:00.129Z,1.60
2023-07-03T18:52:27.259Z,1.75
2023-07-03T18:54:53.925Z,1.85
2023-07-03T18:57:20.542Z,1.75
2023-07-03T18:59:48.091Z,1.50
2023-07-03T19:02:16.265Z,1.88
2023-07-03T19:04:44.663Z,1.42
2023-07-03T19:07:11.720Z,1.88
2023-07-03T19:09:38.316Z,1.88
2023-07-03T19:12:07.277Z,1.77
2023-07-03T19:14:34.373Z,2.08
2023-07-03T19:17:01.038Z,1.63
2023-07-03T19:19:27.819Z,2.17
2023-07-03T19:21:54.456Z,1.92
2023-07-03T19:24:21.122Z,1.70
2023-07-03T19:26:48.090Z,1.63
2023-07-03T19:29:14.856Z,1.90
2023-07-03T19:31:41.664Z,2.13
2023-07-03T19:34:08.353Z,1.80
2023-07-03T19:36:34.999Z,1.73
2023-07-03T19:39:02.020Z,1.92
2023-07-03T19:41:30.182Z,2.20
2023-07-03T19:43:57.163Z,1.90
2023-07-03T19:46:23.791Z,1.80
2023-07-03T19:48:50.532Z,2.38
2023-07-03T19:51:17.792Z,2.15
2023-07-03T19:53:44.559Z,2.13
2023-07-03T19:56:15.852Z,2.22
2023-07-03T19:58:43.533Z,2.33
2023-07-03T20:01:12.628Z,2.20
2023-07-03T20:03:40.110Z,2.10
2023-07-03T20:06:18.724Z,2.38
2023-07-03T20:08:47.374Z,2.33
2023-07-03T20:11:14.313Z,2.15
2023-07-03T20:13:41.055Z,2.30
2023-07-03T20:16:08.788Z,2.47
2023-07-03T20:18:35.773Z,2.58
2023-07-03T20:21:07.063Z,2.50
2023-07-03T20:23:34.877Z,2.25
2023-07-03T20:26:01.837Z,2.33
2023-07-03T20:28:28.745Z,2.40
2023-07-03T20:30:55.745Z,2.50
2023-07-03T20:33:22.913Z,3.03
2023-07-03T20:36:05.284Z,2.65
2023-07-03T20:38:32.825Z,2.72
2023-07-03T20:41:08.398Z,2.90
2023-07-03T20:43:36.337Z,3.03
2023-07-03T20:46:05.784Z,2.80
2023-07-03T20:48:33.105Z,3.00
2023-07-03T20:51:05.157Z,2.70
2023-07-03T20:53:51.288Z,2.50
2023-07-03T20:56:21.266Z,2.75
2023-07-03T20:58:51.628Z,2.85
2023-07-03T21:01:27.731Z,2.85
2023-07-03T21:03:56.143Z,2.90
2023-07-03T21:06:25.156Z,3.00
2023-07-03T21:08:52.317Z,2.70
2023-07-03T21:11:23.385Z,2.97
2023-07-03T21:13:52.412Z,2.95
2023-07-03T21:16:23.045Z,3.00
2023-07-03T21:18:51.110Z,2.80
2023-07-03T21:21:32.574Z,3.00
2023-07-03T21:24:02.206Z,3.03
2023-07-03T21:26:28.954Z,3.28
2023-07-03T21:28:55.715Z,3.67
2023-07-03T21:31:28.343Z,3.28
2023-07-03T21:33:55.150Z,3.33
2023-07-03T21:36:25.173Z,3.10
2023-07-03T21:38:54.273Z,3.05
2023-07-03T21:41:21.571Z,3.08
2023-07-03T21:43:56.482Z,2.95
2023-07-03T21:46:27.601Z,2.70
2023-07-03T21:48:58.600Z,3.00
2023-07-03T21:51:28.880Z,2.92
2023-07-03T21:53:55.780Z,2.70
2023-07-03T21:56:31.214Z,3.10
2023-07-03T21:59:02.361Z,2.70
2023-07-03T22:01:34.785Z,2.75
2023-07-03T22:04:03.398Z,2.78
2023-07-03T22:06:30.354Z,2.83
2023-07-03T22:08:58.020Z,2.53
2023-07-03T22:11:25.591Z,2.95
2023-07-03T22:13:52.485Z,2.22
2023-07-03T22:16:20.325Z,2.70
2023-07-03T22:18:47.936Z,2.95
2023-07-03T22:21:19.427Z,2.70
2023-07-03T22:23:50.599Z,2.85
2023-07-03T22:26:17.474Z,2.75
2023-07-03T22:28:44.102Z,2.20
2023-07-03T22:31:12.127Z,2.50
2023-07-03T22:33:39.374Z,2.72
2023-07-03T22:36:08.443Z,2.90
2023-07-03T22:38:35.191Z,2.63
2023-07-03T22:41:01.785Z,2.80
2023-07-03T22:43:29.856Z,2.58
2023-07-03T22:45:56.484Z,3.00
2023-07-03T22:48:23.374Z,2.90
2023-07-03T22:50:54.274Z,2.58
2023-07-03T22:53:21.699Z,2.42
2023-07-03T22:55:48.517Z,2.40
2023-07-03T22:58:15.220Z,2.65
2023-07-03T23:00:41.987Z,2.53
2023-07-03T23:03:10.062Z,2.22
2023-07-03T23:05:47.296Z,2.30
2023-07-03T23:08:15.613Z,2.30
2023-07-03T23:10:55.861Z,2.00
2023-07-03T23:13:24.580Z,2.47
2023-07-03T23:16:05.587Z,2.83
2023-07-03T23:18:33.579Z,2.30
2023-07-03T23:21:02.228Z,2.13
2023-07-03T23:23:32.148Z,2.30
2023-07-03T23:26:02.002Z,2.42
2023-07-03T23:28:35.877Z,2.25
2023-07-03T23:31:08.656Z,2.28
2023-07-03T23:33:35.438Z,2.50
2023-07-03T23:36:08.167Z,2.45
2023-07-03T23:38:35.708Z,2.65
2023-07-03T23:41:05.463Z,2.33
2023-07-03T23:43:33.562Z,2.67
2023-07-03T23:46:00.306Z,2.28
2023-07-03T23:48:28.217Z,2.38
2023-07-03T23:50:57.494Z,1.98
2023-07-03T23:53:25.860Z,2.30
2023-07-03T23:55:53.951Z,2.22
2023-07-03T23:58:23.035Z,2.58
